createdAt,value
2023-01-15T00:04:37.789Z,0.0
2023-01-15T00:09:45.784Z,0.0
2023-01-15T00:14:52.165Z,0.0
2023-01-15T00:20:00.150Z,0.0
2023-01-15T00:25:06.525Z,0.0
2023-01-15T00:30:13.243Z,0.0
2023-01-15T00:35:19.776Z,0.0
2023-01-15T00:40:26.188Z,0.0
2023-01-15T00:45:32.642Z,0.0
2023-01-15T00:50:39.028Z,0.0
2023-01-15T01:00:53.632Z,0.0
2023-01-15T01:06:44.671Z,0.0
2023-01-15T01:12:19.156Z,0.0
2023-01-15T01:16:36.462Z,0.0
2023-01-15T01:21:23.045Z,0.0
2023-01-15T01:26:54.779Z,0.0
2023-01-15T01:31:55.998Z,0.0
2023-01-15T01:36:42.317Z,0.0
2023-01-15T01:41:48.710Z,0.0
2023-01-15T01:46:55.099Z,0.0
2023-01-15T01:52:01.462Z,0.0
2023-01-15T01:58:53.403Z,0.0
2023-01-15T02:04:44.976Z,0.0
2023-01-15T02:09:07.233Z,0.0
2023-01-15T02:14:13.749Z,0.0
2023-01-15T02:25:53.364Z,0.0
2023-01-15T02:31:00.787Z,0.0
2023-01-15T02:35:57.138Z,0.0
2023-01-15T02:41:13.549Z,0.0
2023-01-15T02:47:32.061Z,0.0
2023-01-15T02:51:26.329Z,0.0
2023-01-15T02:56:34.029Z,0.0
2023-01-15T03:01:40.559Z,0.0
2023-01-15T03:06:46.803Z,0.0
2023-01-15T03:12:17.214Z,0.0
2023-01-15T03:16:59.731Z,0.0
2023-01-15T03:22:06.126Z,0.0
2023-01-15T03:27:36.205Z,0.0
2023-01-15T03:32:22.561Z,0.0
2023-01-15T03:37:28.925Z,0.0
2023-01-15T03:42:59.357Z,0.0
2023-01-15T03:47:41.819Z,0.0
2023-01-15T03:52:48.293Z,0.0
2023-01-15T03:57:54.962Z,0.0
2023-01-15T04:03:03.641Z,0.0
2023-01-15T04:08:09.924Z,0.0
2023-01-15T04:13:16.375Z,0.0
2023-01-15T04:18:22.762Z,0.0
2023-01-15T04:23:19.111Z,0.0
2023-01-15T04:28:39.524Z,0.0
2023-01-15T04:33:31.862Z,0.0
2023-01-15T04:38:52.301Z,0.0
2023-01-15T04:43:54.438Z,0.0
2023-01-15T04:49:21.849Z,0.0
2023-01-15T04:53:58.182Z,0.0
2023-01-15T04:59:16.163Z,0.0
2023-01-15T05:04:22.609Z,0.0
2023-01-15T05:09:28.968Z,0.0
2023-01-15T05:14:35.337Z,0.0
2023-01-15T05:20:50.886Z,0.0
2023-01-15T05:25:58.837Z,0.0
2023-01-15T05:31:05.401Z,0.0
2023-01-15T05:36:35.882Z,0.0
2023-01-15T05:41:18.316Z,0.0
2023-01-15T05:46:24.729Z,0.0
2023-01-15T05:51:31.632Z,0.0
2023-01-15T05:56:38.012Z,0.0
2023-01-15T06:01:44.402Z,0.0
2023-01-15T06:06:50.804Z,0.0
2023-01-15T06:12:21.203Z,0.0
2023-01-15T06:17:06.520Z,0.0
2023-01-15T06:22:34.050Z,0.0
2023-01-15T06:28:29.335Z,0.0
2023-01-15T06:33:35.729Z,0.0
2023-01-15T06:37:30.243Z,0.0
2023-01-15T06:42:57.212Z,0.0
2023-01-15T06:47:43.567Z,0.0
2023-01-15T06:54:26.410Z,0.0
2023-01-15T06:59:03.815Z,0.0
2023-01-15T07:04:20.227Z,0.0
2023-01-15T07:09:26.600Z,0.0
2023-01-15T07:14:32.979Z,0.0
2023-01-15T07:19:39.521Z,0.0
2023-01-15T07:24:45.911Z,0.0
2023-01-15T07:29:42.258Z,0.0
2023-01-15T07:34:58.652Z,5.0
2023-01-15T07:40:05.035Z,10.0
2023-01-15T07:45:11.619Z,10.0
2023-01-15T07:50:18.000Z,15.0
2023-01-15T07:55:24.418Z,20.0
2023-01-15T08:01:05.955Z,20.0
2023-01-15T08:06:13.242Z,25.0
2023-01-15T08:11:19.633Z,25.0
2023-01-15T08:16:26.167Z,20.0
2023-01-15T08:21:32.411Z,25.0
2023-01-15T08:26:38.810Z,45.0
2023-01-15T08:31:45.269Z,45.0
2023-01-15T08:36:41.559Z,55.0
2023-01-15T08:41:57.948Z,65.0
2023-01-15T08:47:24.365Z,75.0
2023-01-15T08:52:10.719Z,85.0
2023-01-15T08:57:17.113Z,110.0
2023-01-15T09:02:23.497Z,145.0
2023-01-15T09:07:33.512Z,165.0
2023-01-15T09:12:39.956Z,165.0
2023-01-15T09:17:46.309Z,205.0
2023-01-15T09:22:52.673Z,190.0
2023-01-15T09:27:59.055Z,190.0
2023-01-15T09:33:05.445Z,185.0
2023-01-15T09:38:31.833Z,185.0
2023-01-15T09:43:18.164Z,205.0
2023-01-15T09:48:48.747Z,230.0
2023-01-15T09:53:31.131Z,215.0
2023-01-15T09:58:37.539Z,145.0
2023-01-15T10:03:43.919Z,200.0
2023-01-15T10:08:50.295Z,245.0
2023-01-15T10:13:56.689Z,215.0
2023-01-15T10:19:03.068Z,255.0
2023-01-15T10:24:09.600Z,255.0
2023-01-15T10:29:15.980Z,225.0
2023-01-15T10:34:22.361Z,275.0
2023-01-15T10:39:28.751Z,240.0
2023-01-15T10:44:35.118Z,190.0
2023-01-15T10:49:40.505Z,315.0
2023-01-15T10:55:11.970Z,230.0
2023-01-15T10:59:54.388Z,240.0
2023-01-15T11:05:20.826Z,340.0
2023-01-15T11:15:53.054Z,315.0
2023-01-15T11:21:24.380Z,250.0
2023-01-15T11:26:06.730Z,95.0
2023-01-15T11:31:13.151Z,130.0
2023-01-15T11:36:09.644Z,85.0
2023-01-15T11:41:26.152Z,200.0
2023-01-15T11:46:32.701Z,175.0
2023-01-15T11:51:39.130Z,175.0
2023-01-15T11:56:45.537Z,165.0
2023-01-15T12:01:51.892Z,2215.0
2023-01-15T12:06:58.387Z,1405.0
2023-01-15T12:11:54.729Z,810.0
2023-01-15T12:17:12.698Z,230.0
2023-01-15T12:22:19.149Z,65.0
2023-01-15T12:32:30.917Z,225.0
2023-01-15T12:37:38.299Z,180.0
2023-01-15T12:42:34.806Z,300.0
2023-01-15T12:47:51.414Z,320.0
2023-01-15T12:52:58.318Z,85.0
2023-01-15T12:58:08.714Z,45.0
2023-01-15T13:03:11.102Z,35.0
2023-01-15T13:08:17.470Z,30.0
2023-01-15T13:13:23.847Z,30.0
2023-01-15T13:18:30.235Z,95.0
2023-01-15T13:23:36.632Z,45.0
2023-01-15T13:29:07.046Z,60.0
2023-01-15T13:33:39.493Z,60.0
2023-01-15T13:38:55.898Z,45.0
2023-01-15T13:44:02.285Z,30.0
2023-01-15T13:48:58.676Z,25.0
2023-01-15T13:54:15.074Z,25.0
2023-01-15T13:59:25.016Z,25.0
2023-01-15T14:04:31.395Z,25.0
2023-01-15T14:14:48.123Z,45.0
2023-01-15T14:21:08.234Z,25.0
2023-01-15T14:25:02.437Z,25.0
2023-01-15T14:30:12.411Z,25.0
2023-01-15T14:35:08.767Z,40.0
2023-01-15T14:40:25.167Z,30.0
2023-01-15T14:45:31.598Z,35.0
2023-01-15T14:50:46.609Z,35.0
2023-01-15T14:55:48.991Z,20.0
2023-01-15T15:00:56.089Z,30.0
2023-01-15T15:11:08.698Z,55.0
2023-01-15T15:17:15.378Z,55.0
2023-01-15T15:21:21.627Z,50.0
2023-01-15T15:26:28.018Z,40.0
2023-01-15T15:32:13.467Z,25.0
2023-01-15T15:37:54.980Z,25.0
2023-01-15T15:43:02.370Z,15.0
2023-01-15T15:48:08.746Z,10.0
2023-01-15T15:53:15.118Z,5.0
2023-01-15T15:58:21.627Z,0.0
2023-01-15T16:03:28.037Z,0.0
2023-01-15T16:08:34.419Z,0.0
2023-01-15T16:13:30.755Z,0.0
2023-01-15T16:18:46.165Z,0.0
2023-01-15T16:23:53.534Z,0.0
2023-01-15T16:28:59.892Z,0.0
2023-01-15T16:34:06.298Z,0.0
2023-01-15T16:39:12.662Z,0.0
2023-01-15T16:44:19.029Z,0.0
2023-01-15T16:49:25.404Z,0.0
2023-01-15T16:54:31.887Z,0.0
2023-01-15T16:59:42.195Z,0.0
2023-01-15T17:04:44.580Z,0.0
2023-01-15T17:10:14.980Z,0.0
2023-01-15T17:14:57.303Z,0.0
2023-01-15T17:20:03.793Z,0.0
2023-01-15T17:25:00.360Z,0.0
2023-01-15T17:30:06.656Z,0.0
2023-01-15T17:35:13.027Z,0.0
2023-01-15T17:40:53.467Z,0.0
2023-01-15T17:45:35.798Z,0.0
2023-01-15T17:50:42.169Z,0.0
2023-01-15T17:55:48.723Z,0.0
2023-01-15T18:00:55.183Z,0.0
2023-01-15T18:06:01.584Z,0.0
2023-01-15T18:10:57.985Z,0.0
2023-01-15T18:16:14.505Z,0.0
2023-01-15T18:22:36.509Z,0.0
2023-01-15T18:26:30.755Z,0.0
2023-01-15T18:32:01.182Z,0.0
2023-01-15T18:36:47.543Z,0.0
2023-01-15T18:41:49.970Z,0.0
2023-01-15T18:46:56.334Z,0.0
2023-01-15T18:52:02.713Z,0.0
2023-01-15T18:57:09.104Z,0.0
2023-01-15T19:02:05.619Z,0.0
2023-01-15T19:09:43.268Z,0.0
2023-01-15T19:13:38.543Z,0.0
2023-01-15T19:19:04.947Z,0.0
2023-01-15T19:23:41.269Z,0.0
2023-01-15T19:28:57.678Z,0.0
2023-01-15T19:34:31.562Z,0.0
2023-01-15T19:39:10.475Z,0.0
2023-01-15T19:44:16.860Z,0.0
2023-01-15T19:49:47.288Z,0.0
2023-01-15T19:54:29.737Z,0.0
2023-01-15T20:00:10.214Z,0.0
2023-01-15T20:05:17.578Z,0.0
2023-01-15T20:10:24.014Z,0.0
2023-01-15T20:15:30.493Z,0.0
2023-01-15T20:20:36.867Z,0.0
2023-01-15T20:25:43.249Z,0.0
2023-01-15T20:30:49.627Z,0.0
2023-01-15T20:35:56.004Z,0.0
2023-01-15T20:41:02.452Z,0.0
2023-01-15T20:46:08.979Z,0.0
2023-01-15T20:51:15.295Z,0.0
2023-01-15T20:56:21.694Z,0.0
2023-01-15T21:03:01.288Z,0.0
2023-01-15T21:07:44.627Z,0.0
2023-01-15T21:12:51.026Z,0.0
2023-01-15T21:17:57.384Z,0.0
2023-01-15T21:23:03.771Z,0.0
2023-01-15T21:28:10.167Z,0.0
2023-01-15T21:33:15.929Z,0.0
2023-01-15T21:38:13.323Z,0.0
2023-01-15T21:43:29.783Z,0.0
2023-01-15T21:49:34.293Z,0.0
2023-01-15T21:54:17.625Z,0.0
2023-01-15T21:59:24.016Z,0.0
2023-01-15T22:04:30.384Z,0.0
2023-01-15T22:09:56.801Z,0.0
2023-01-15T22:14:43.131Z,0.0
2023-01-15T22:20:58.683Z,0.0
2023-01-15T22:26:06.074Z,0.0
2023-01-15T22:31:12.512Z,0.0
2023-01-15T22:36:18.848Z,0.0
2023-01-15T22:41:25.236Z,0.0
2023-01-15T22:47:43.742Z,0.0
2023-01-15T22:51:38.004Z,0.0
2023-01-15T23:01:58.612Z,0.0
2023-01-15T23:06:59.927Z,0.0
2023-01-15T23:12:31.409Z,0.0
2023-01-15T23:17:47.864Z,0.0
2023-01-15T23:24:07.365Z,0.0
2023-01-15T23:28:01.662Z,0.0
2023-01-15T23:33:08.008Z,0.0
2023-01-15T23:38:14.345Z,0.0
2023-01-15T23:43:20.707Z,0.0
2023-01-15T23:48:27.139Z,0.0
2023-01-15T23:53:33.561Z,0.0
2023-01-15T23:59:01.578Z,0.0
